Amsterdam, MO

12:09 AM CST on February 14, 2016 (GMT -0600)
KMOAMSTE2 | | Change Station
CLOSE
Current Station
Personal Weather Station
Location: Amsterdam, MO
Elevation: 906 ft
Nearby Weather Stations

Elev 906 ft 38.36 °N, 94.61 °W | Updated 10 seconds ago

Overcast
Overcast
25.0 °F
Feels Like 25 °F
N
0.0
Wind Variable Wind from North
Gusts 0.0 mph

Today
High -- | Low -- °F
--% Chance of Precip.
Yesterday
High -- | Low -- °F
Precip. -- in
Pressure 30.20 in
Visibility 10.0 miles
Clouds Few 6500 ft
Windchill 25 °F
Dew Point -9 °F
Humidity 21%
Rainfall 0.00 in
Snow Depth Not available.
7:10 AM 5:54 PM
Waxing Crescent, 38% visible
METAR KOJC 140553Z AUTO 10009KT 10SM FEW065 M06/M16 A3015 RMK AO2 SLP226 T10561161 11056 21067 410561089 58028
Pressure 30.20 in
Visibility 10.0 miles
Clouds Few 6500 ft
Windchill 25 °F
Dew Point -9 °F
Humidity 21%
Rainfall 0.00 in
Snow Depth Not available.
7:10 AM 5:54 PM
Waxing Crescent, 38% visible
METAR KOJC 140553Z AUTO 10009KT 10SM FEW065 M06/M16 A3015 RMK AO2 SLP226 T10561161 11056 21067 410561089 58028

10-Day Weather Forecast

Almanac

Astronomy

Feb. 14, 2016 Rise Set
Actual Time
Civil Twilight
Nautical Twilight
Astronomical Twilight
Moon
Length of Visible Light
Length of Day
Tomorrow will be .
, % of the Moon is Illuminated

Today's Extremes

State Highs State Lows

Community

WunderPhotos

Upload Photos

1,892,752 photos uploaded!

WunderBlog® & News

Nearby

Air Quality

  Air Quality AQ Index Pollutant
Not available.

Snow Depth

Station Depth Elevation

Earthquake Activity

City Distance Mag. Time & Date
Minimum magnitude displayed is 2.5.

Coastal Water Temperatures

Place Temperature

Stations

Nearby Weather Stations

Station Location Temp. Windchill Dew Point Humidity Wind Precip. Elev Updated Type
                   

Watches & Warnings

There are currently no watches in effect.